Time;durP1;ratioP1;P1;durP2;ratioP2;P2;SDS_P1;SDS_P2;PMS_P1;PMS_P2;Temp;Humidity;BMP_temperature;BMP_pressure;BME280_temperature;BME280_humidity;BME280_pressure;Samples;Min_cycle;Max_cycle;Signal;HPM_P1;HPM_P2
2022/12/18 00:00:42;;;;;;;40.85;18.27;;;-3.80;99.90;;;;;;5028005;28;20560;-63
2022/12/18 00:03:07;;;;;;;44.03;19.23;;;-3.70;99.90;;;;;;5030758;28;20226;-62
2022/12/18 00:05:33;;;;;;;42.55;20.15;;;-3.80;99.90;;;;;;5028831;28;20105;-62
2022/12/18 00:07:58;;;;;;;42.05;20.08;;;-3.80;99.90;;;;;;5030534;28;20087;-62
2022/12/18 00:10:24;;;;;;;48.03;20.38;;;-3.80;99.90;;;;;;5025437;28;20428;-62
2022/12/18 00:12:49;;;;;;;83.35;34.42;;;-3.80;99.90;;;;;;5030617;28;20033;-62
2022/12/18 00:15:15;;;;;;;79.97;32.25;;;-3.80;99.90;;;;;;5029940;28;20032;-62
2022/12/18 00:17:41;;;;;;;76.95;32.60;;;-3.90;99.90;;;;;;5028557;28;20032;-62
2022/12/18 00:20:07;;;;;;;63.65;28.92;;;-4.00;99.90;;;;;;5027173;28;20025;-62
2022/12/18 00:22:32;;;;;;;59.80;25.20;;;-4.00;99.90;;;;;;5030026;28;20624;-62
2022/12/18 00:24:58;;;;;;;58.40;26.00;;;-4.00;99.90;;;;;;5029138;28;20469;-62
2022/12/18 00:27:23;;;;;;;52.63;22.55;;;-4.00;99.90;;;;;;5028221;28;20028;-62
2022/12/18 00:29:49;;;;;;;54.67;22.33;;;-3.90;99.90;;;;;;5030221;28;20021;-62
2022/12/18 00:32:14;;;;;;;57.47;23.52;;;-4.00;99.90;;;;;;5029968;28;20052;-64
2022/12/18 00:34:40;;;;;;;52.08;22.70;;;-4.00;99.90;;;;;;5028468;28;20042;-64
2022/12/18 00:37:05;;;;;;;47.50;21.58;;;-4.00;99.90;;;;;;5028471;28;20051;-64
2022/12/18 00:39:31;;;;;;;54.60;25.65;;;-4.00;99.90;;;;;;5027381;28;20151;-64
2022/12/18 00:44:41;;;;;;;46.42;21.80;;;-4.10;99.90;;;;;;5030349;28;20534;-64
2022/12/18 00:47:06;;;;;;;44.08;20.20;;;-4.10;99.90;;;;;;5028998;28;20025;-64
2022/12/18 00:49:32;;;;;;;45.53;20.65;;;-4.10;99.90;;;;;;5027803;28;20606;-65
2022/12/18 00:51:57;;;;;;;39.25;19.17;;;-4.10;99.90;;;;;;5027164;28;20092;-65
2022/12/18 00:54:23;;;;;;;73.60;31.02;;;-4.10;99.90;;;;;;5028822;28;20108;-64
2022/12/18 00:56:48;;;;;;;78.40;32.70;;;-4.10;99.90;;;;;;5029919;28;20021;-65
2022/12/18 00:59:15;;;;;;;70.50;32.08;;;-4.20;99.90;;;;;;5025970;28;20034;-64
2022/12/18 01:01:40;;;;;;;75.28;34.67;;;-4.20;99.90;;;;;;5026462;28;20025;-65
2022/12/18 01:04:06;;;;;;;68.85;30.13;;;-4.30;99.90;;;;;;5028936;28;20029;-65
2022/12/18 01:06:31;;;;;;;73.60;32.72;;;-4.30;99.90;;;;;;5028894;28;20420;-65
2022/12/18 01:08:57;;;;;;;73.22;31.85;;;-4.30;99.90;;;;;;5027013;28;20025;-64
2022/12/18 01:11:23;;;;;;;72.15;34.15;;;-4.40;99.90;;;;;;5029808;28;20521;-64
2022/12/18 01:13:48;;;;;;;68.35;31.48;;;-4.40;99.90;;;;;;5029635;28;20113;-63
2022/12/18 01:16:16;;;;;;;61.20;29.40;;;-4.50;99.90;;;;;;5031095;28;20104;-62
2022/12/18 01:18:41;;;;;;;64.20;29.33;;;-4.50;99.90;;;;;;5026833;28;20033;-62
2022/12/18 01:21:09;;;;;;;64.78;31.02;;;-4.50;99.90;;;;;;5029243;28;20025;-62
2022/12/18 01:23:35;;;;;;;65.32;29.15;;;-4.50;99.90;;;;;;5027620;28;20464;-63
2022/12/18 01:26:29;;;;;;;60.20;29.92;;;-4.60;99.90;;;;;;5030391;28;20104;-62
2022/12/18 01:28:56;;;;;;;63.97;28.05;;;-4.60;99.90;;;;;;5021715;28;20231;-62
2022/12/18 01:31:25;;;;;;;63.85;28.55;;;-4.70;99.90;;;;;;5028248;28;20351;-62
2022/12/18 01:33:51;;;;;;;57.08;29.13;;;-4.70;99.90;;;;;;5042129;28;20509;-61
2022/12/18 01:36:22;;;;;;;62.35;30.27;;;-4.70;99.90;;;;;;5027242;28;20365;-62
2022/12/18 01:38:48;;;;;;;64.05;29.77;;;-4.70;99.90;;;;;;5028925;28;20052;-61
2022/12/18 01:41:16;;;;;;;61.50;28.58;;;-4.80;99.90;;;;;;5027401;28;20018;-62
2022/12/18 01:43:54;;;;;;;59.92;28.30;;;-4.80;99.90;;;;;;5028592;28;20075;-62
2022/12/18 01:46:25;;;;;;;56.15;26.90;;;-4.80;99.90;;;;;;5029857;28;20052;-62
2022/12/18 01:48:59;;;;;;;56.72;27.80;;;-4.80;99.90;;;;;;5026831;28;20075;-62
2022/12/18 01:51:26;;;;;;;58.60;29.50;;;-4.80;99.90;;;;;;5025804;28;20544;-61
2022/12/18 01:53:52;;;;;;;51.97;25.38;;;-4.80;99.90;;;;;;5028896;28;20026;-64
2022/12/18 01:56:20;;;;;;;53.85;26.30;;;-4.80;99.90;;;;;;5028204;28;20495;-62
2022/12/18 01:59:06;;;;;;;51.67;26.02;;;-4.80;99.90;;;;;;5026676;28;20425;-62
2022/12/18 02:01:32;;;;;;;50.40;25.08;;;-4.70;99.90;;;;;;5028418;28;20104;-62
2022/12/18 02:04:25;;;;;;;54.70;25.33;;;-4.80;99.90;;;;;;5027285;28;20049;-62
2022/12/18 02:06:59;;;;;;;54.80;26.55;;;-4.80;99.90;;;;;;5026554;28;20022;-62
2022/12/18 02:09:33;;;;;;;49.83;24.30;;;-4.80;99.90;;;;;;5025065;28;20027;-62
2022/12/18 02:12:21;;;;;;;52.35;24.48;;;-4.80;99.90;;;;;;5028251;28;20040;-61
2022/12/18 02:14:59;;;;;;;50.92;23.23;;;-4.80;99.90;;;;;;5028265;28;20025;-62
2022/12/18 02:17:47;;;;;;;50.80;23.17;;;-4.80;99.90;;;;;;5025496;28;20487;-62
2022/12/18 02:20:19;;;;;;;50.35;24.52;;;-4.80;99.90;;;;;;5030392;28;20026;-62
2022/12/18 02:23:03;;;;;;;50.35;24.38;;;-4.90;99.90;;;;;;5032058;28;20021;-64
2022/12/18 02:25:59;;;;;;;50.20;23.98;;;-4.80;99.90;;;;;;5045436;28;20072;-65
2022/12/18 02:28:30;;;;;;;47.35;23.63;;;-4.80;99.90;;;;;;5030965;28;20477;-64
2022/12/18 02:31:01;;;;;;;47.17;23.20;;;-4.80;99.90;;;;;;5029984;28;20052;-64
2022/12/18 02:33:28;;;;;;;46.30;22.70;;;-4.80;99.90;;;;;;5030020;28;20124;-65
2022/12/18 02:35:56;;;;;;;44.15;22.35;;;-4.80;99.90;;;;;;5030804;28;20029;-66
2022/12/18 02:38:24;;;;;;;47.97;24.42;;;-4.80;99.90;;;;;;5030185;28;20009;-64
2022/12/18 02:40:51;;;;;;;52.35;23.33;;;-4.80;99.90;;;;;;5032033;28;20017;-64
2022/12/18 02:43:17;;;;;;;48.80;24.42;;;-4.80;99.90;;;;;;5030504;28;20025;-65
2022/12/18 02:45:58;;;;;;;45.55;22.02;;;-4.80;99.90;;;;;;5031104;28;20025;-64
2022/12/18 02:48:32;;;;;;;44.25;23.10;;;-4.80;99.90;;;;;;5028041;28;20025;-65
2022/12/18 02:51:22;;;;;;;43.75;22.52;;;-4.80;99.90;;;;;;5031781;28;20029;-65
2022/12/18 02:54:06;;;;;;;45.25;22.55;;;-4.80;99.90;;;;;;5029865;28;20116;-65
2022/12/18 02:56:53;;;;;;;47.13;22.05;;;-4.80;99.90;;;;;;5029463;28;20060;-64
2022/12/18 02:59:30;;;;;;;41.25;22.40;;;-4.90;99.90;;;;;;5031834;28;20025;-65
2022/12/18 03:01:58;;;;;;;43.28;22.08;;;-4.90;99.90;;;;;;5028303;28;20123;-65
2022/12/18 03:04:32;;;;;;;45.55;21.98;;;-4.90;99.90;;;;;;5032099;28;20132;-64
2022/12/18 03:07:05;;;;;;;42.80;21.83;;;-4.90;99.90;;;;;;5028769;28;20465;-65
2022/12/18 03:09:44;;;;;;;40.17;21.13;;;-4.90;99.90;;;;;;5032101;28;20022;-65
2022/12/18 03:12:22;;;;;;;37.35;19.85;;;-4.90;99.90;;;;;;5029141;28;20025;-63
2022/12/18 03:15:03;;;;;;;37.00;20.00;;;-4.80;99.90;;;;;;5031311;28;20501;-62
2022/12/18 03:17:31;;;;;;;38.92;19.48;;;-4.80;99.90;;;;;;5044432;28;20652;-62
2022/12/18 03:20:02;;;;;;;39.92;20.17;;;-4.90;99.90;;;;;;5027112;28;20126;-62
2022/12/18 03:22:31;;;;;;;35.75;19.45;;;-4.80;99.90;;;;;;5032001;28;20067;-63
2022/12/18 03:25:00;;;;;;;35.08;17.33;;;-4.80;99.90;;;;;;5030457;28;20019;-63
2022/12/18 03:27:30;;;;;;;33.35;18.00;;;-4.80;99.90;;;;;;5030077;28;20080;-63
2022/12/18 03:30:07;;;;;;;26.63;15.70;;;-4.80;99.90;;;;;;5029095;28;20022;-63
2022/12/18 03:32:54;;;;;;;25.38;15.07;;;-4.80;99.90;;;;;;5029768;28;20359;-62
2022/12/18 03:35:28;;;;;;;29.02;16.73;;;-4.80;99.90;;;;;;5029868;28;20069;-63
2022/12/18 03:37:53;;;;;;;32.53;17.13;;;-4.80;99.90;;;;;;5028789;28;20022;-63
2022/12/18 03:40:31;;;;;;;40.67;20.10;;;-4.80;99.90;;;;;;5031147;28;20060;-63
2022/12/18 03:43:10;;;;;;;37.33;19.52;;;-4.80;99.90;;;;;;5028287;28;20039;-62
2022/12/18 03:45:44;;;;;;;36.67;18.73;;;-4.80;99.90;;;;;;5029125;28;20025;-63
2022/12/18 03:48:35;;;;;;;36.88;19.05;;;-4.90;99.90;;;;;;5029943;28;20036;-62
2022/12/18 03:51:26;;;;;;;32.72;17.85;;;-4.90;99.90;;;;;;5028868;28;20451;-63
2022/12/18 03:54:01;;;;;;;35.35;18.30;;;-5.00;99.90;;;;;;5029165;28;20107;-62
2022/12/18 03:56:30;;;;;;;34.42;17.98;;;-5.00;99.90;;;;;;5029348;28;20508;-63
2022/12/18 03:58:58;;;;;;;35.70;18.83;;;-5.00;99.90;;;;;;5029489;28;20026;-63
2022/12/18 04:01:32;;;;;;;41.10;20.50;;;-5.00;99.90;;;;;;5029751;28;20021;-63
2022/12/18 04:04:00;;;;;;;37.15;17.67;;;-5.00;99.90;;;;;;5026740;28;20022;-63
2022/12/18 04:06:27;;;;;;;37.17;18.27;;;-5.00;99.90;;;;;;5028511;28;20067;-63
2022/12/18 04:08:53;;;;;;;39.63;18.88;;;-5.00;99.90;;;;;;5029405;28;20021;-63
2022/12/18 04:11:19;;;;;;;27.58;15.30;;;-5.00;99.90;;;;;;5029081;28;20436;-63
2022/12/18 04:13:44;;;;;;;34.00;18.02;;;-5.00;99.90;;;;;;5029283;28;20040;-63
2022/12/18 04:16:10;;;;;;;29.88;17.08;;;-4.90;99.90;;;;;;5028262;28;20025;-63
2022/12/18 04:18:36;;;;;;;33.60;17.45;;;-4.90;99.90;;;;;;5029031;28;20064;-64
2022/12/18 04:21:02;;;;;;;33.08;18.73;;;-4.90;99.90;;;;;;5029080;28;20021;-65
2022/12/18 04:23:28;;;;;;;30.25;16.40;;;-4.90;99.90;;;;;;5030433;28;20029;-65
2022/12/18 04:25:54;;;;;;;30.95;16.00;;;-4.90;99.90;;;;;;5029786;28;20026;-64
2022/12/18 04:28:20;;;;;;;31.80;16.20;;;-4.90;99.90;;;;;;5029389;28;20061;-65
2022/12/18 04:30:49;;;;;;;34.55;17.48;;;-4.90;99.90;;;;;;5028827;28;20025;-65
2022/12/18 04:33:17;;;;;;;36.38;17.92;;;-4.80;99.90;;;;;;5028823;28;20069;-64
2022/12/18 04:35:43;;;;;;;31.85;16.27;;;-4.90;99.90;;;;;;5030730;28;20481;-63
2022/12/18 04:38:09;;;;;;;30.20;16.88;;;-4.80;99.90;;;;;;5030152;28;20026;-63
2022/12/18 04:40:36;;;;;;;27.50;14.57;;;-4.80;99.90;;;;;;5029497;28;20698;-62
2022/12/18 04:43:02;;;;;;;30.52;14.50;;;-4.80;99.90;;;;;;5025992;28;20063;-62
2022/12/18 04:45:28;;;;;;;27.83;14.20;;;-4.80;99.90;;;;;;5030522;28;20025;-62
2022/12/18 04:47:53;;;;;;;29.42;15.40;;;-4.80;99.90;;;;;;5027508;28;20117;-63
2022/12/18 04:50:19;;;;;;;31.92;16.33;;;-4.70;99.90;;;;;;5030533;28;20036;-63
2022/12/18 04:52:44;;;;;;;26.05;15.07;;;-4.70;99.90;;;;;;5027309;28;20037;-63
2022/12/18 04:55:10;;;;;;;29.25;14.60;;;-4.70;99.90;;;;;;5028056;28;20044;-63
2022/12/18 04:57:35;;;;;;;24.63;14.13;;;-4.70;99.90;;;;;;5027057;28;20279;-63
2022/12/18 05:00:02;;;;;;;22.88;13.38;;;-4.70;99.90;;;;;;5029419;28;20018;-63
2022/12/18 05:02:28;;;;;;;28.13;15.60;;;-4.70;99.90;;;;;;5028509;28;20116;-63
2022/12/18 05:04:53;;;;;;;32.95;15.88;;;-4.70;99.90;;;;;;5029990;28;20166;-63
2022/12/18 05:07:19;;;;;;;28.70;16.55;;;-4.70;99.90;;;;;;5029320;28;20029;-63
2022/12/18 05:09:44;;;;;;;30.70;15.43;;;-4.70;99.90;;;;;;5028762;28;20044;-62
2022/12/18 05:12:10;;;;;;;28.80;14.60;;;-4.70;99.90;;;;;;5026569;28;20018;-63
2022/12/18 05:14:35;;;;;;;29.88;15.40;;;-4.70;99.90;;;;;;5029485;28;20025;-63
2022/12/18 05:17:01;;;;;;;28.52;16.33;;;-4.70;99.90;;;;;;5027317;28;20052;-63
2022/12/18 05:19:26;;;;;;;30.35;15.75;;;-4.70;99.90;;;;;;5026221;28;20049;-64
2022/12/18 05:21:52;;;;;;;30.98;16.17;;;-4.70;99.90;;;;;;5024213;28;20029;-63
2022/12/18 05:24:17;;;;;;;29.58;15.38;;;-4.70;99.90;;;;;;5024471;28;20048;-63
2022/12/18 05:26:43;;;;;;;28.90;15.43;;;-4.70;99.90;;;;;;5026630;28;20363;-63
2022/12/18 05:29:11;;;;;;;28.67;14.52;;;-4.70;99.90;;;;;;5025038;28;20033;-63
2022/12/18 05:31:38;;;;;;;31.40;15.50;;;-4.70;99.90;;;;;;5040335;28;20392;-63
2022/12/18 05:34:03;;;;;;;30.92;15.90;;;-4.70;99.90;;;;;;5025846;28;20041;-62
2022/12/18 05:36:29;;;;;;;29.58;14.30;;;-4.70;99.90;;;;;;5022730;28;20548;-63
2022/12/18 05:38:54;;;;;;;27.58;16.05;;;-4.70;99.90;;;;;;5027095;28;20033;-62
2022/12/18 05:41:20;;;;;;;27.17;14.40;;;-4.70;99.90;;;;;;5024501;28;20493;-63
2022/12/18 05:43:45;;;;;;;30.05;14.93;;;-4.70;99.90;;;;;;5025737;28;20045;-63
2022/12/18 05:46:15;;;;;;;24.85;14.80;;;-4.70;99.90;;;;;;5024838;28;20017;-62
2022/12/18 05:48:42;;;;;;;29.02;16.50;;;-4.70;99.90;;;;;;5027104;28;20509;-63
2022/12/18 05:51:15;;;;;;;25.02;14.02;;;-4.70;99.90;;;;;;5024972;28;20116;-62
2022/12/18 05:53:41;;;;;;;27.38;14.18;;;-4.60;99.90;;;;;;5025142;28;20032;-63
2022/12/18 05:56:11;;;;;;;26.05;14.85;;;-4.70;99.90;;;;;;5029430;28;20037;-62
2022/12/18 05:58:37;;;;;;;29.25;14.20;;;-4.60;99.90;;;;;;5028623;28;20061;-63
2022/12/18 06:01:14;;;;;;;28.17;15.68;;;-4.60;99.90;;;;;;5029646;28;20060;-63
2022/12/18 06:03:39;;;;;;;20.92;12.23;;;-4.60;99.90;;;;;;5026190;28;20022;-62
2022/12/18 06:06:13;;;;;;;30.90;15.15;;;-4.60;99.90;;;;;;5031008;28;20021;-63
2022/12/18 06:08:39;;;;;;;23.05;13.30;;;-4.60;99.90;;;;;;5028643;28;20021;-63
2022/12/18 06:11:05;;;;;;;24.50;13.20;;;-4.60;99.90;;;;;;5028977;28;20041;-63
2022/12/18 06:13:30;;;;;;;25.45;13.38;;;-4.60;99.90;;;;;;5028322;28;20021;-63
2022/12/18 06:15:56;;;;;;;22.65;11.98;;;-4.60;99.90;;;;;;5030132;28;20037;-63
2022/12/18 06:18:21;;;;;;;21.48;12.25;;;-4.60;99.90;;;;;;5026593;28;20470;-63
2022/12/18 06:20:56;;;;;;;20.58;12.27;;;-4.50;99.90;;;;;;5028808;28;20044;-63
2022/12/18 06:23:21;;;;;;;29.88;15.07;;;-4.60;99.90;;;;;;5042827;28;20026;-62
2022/12/18 06:25:47;;;;;;;26.80;14.52;;;-4.50;99.90;;;;;;5029607;28;20033;-63
2022/12/18 06:28:12;;;;;;;26.17;14.55;;;-4.50;99.90;;;;;;5029125;28;20033;-63
2022/12/18 06:30:38;;;;;;;27.90;13.90;;;-4.60;99.90;;;;;;5030279;28;20039;-63
2022/12/18 06:33:03;;;;;;;22.75;13.77;;;-4.50;99.90;;;;;;5026810;28;20093;-62
2022/12/18 06:35:29;;;;;;;27.52;15.60;;;-4.50;99.90;;;;;;5022130;28;20117;-63
2022/12/18 06:37:54;;;;;;;27.48;14.35;;;-4.50;99.90;;;;;;5026360;28;20489;-62
2022/12/18 06:40:20;;;;;;;26.98;15.40;;;-4.50;99.90;;;;;;5029489;28;20040;-63
2022/12/18 06:42:46;;;;;;;25.90;15.02;;;-4.50;99.90;;;;;;5014493;28;20010;-62
2022/12/18 06:45:16;;;;;;;26.10;14.80;;;-4.40;99.90;;;;;;5022035;28;20017;-63
2022/12/18 06:47:42;;;;;;;30.40;15.82;;;-4.50;99.90;;;;;;5044822;28;20382;-63
2022/12/18 06:50:07;;;;;;;26.95;13.43;;;-4.50;99.90;;;;;;5032064;28;20028;-63
2022/12/18 06:52:33;;;;;;;24.05;13.85;;;-4.40;99.90;;;;;;5030686;28;20025;-63
2022/12/18 06:54:59;;;;;;;22.98;13.15;;;-4.40;99.90;;;;;;5025211;28;20087;-62
2022/12/18 06:57:25;;;;;;;26.10;14.75;;;-4.40;99.90;;;;;;5026554;28;20025;-62
2022/12/18 06:59:50;;;;;;;26.10;14.55;;;-4.40;99.90;;;;;;5038429;28;20022;-63
2022/12/18 07:02:16;;;;;;;27.10;14.73;;;-4.40;99.90;;;;;;5022742;28;20021;-62
2022/12/18 07:04:41;;;;;;;31.98;15.65;;;-4.40;99.90;;;;;;5023642;28;20040;-62
2022/12/18 07:07:07;;;;;;;27.00;14.35;;;-4.30;99.90;;;;;;5023130;28;20037;-62
2022/12/18 07:09:32;;;;;;;31.65;15.82;;;-4.30;99.90;;;;;;5023179;28;20084;-63
2022/12/18 07:11:58;;;;;;;27.75;14.60;;;-4.30;99.90;;;;;;5023282;28;20103;-62
2022/12/18 07:14:23;;;;;;;28.33;16.00;;;-4.20;99.90;;;;;;5022482;28;20056;-63
2022/12/18 07:16:49;;;;;;;29.05;15.63;;;-4.20;99.90;;;;;;5036095;28;20544;-62
2022/12/18 07:19:14;;;;;;;28.88;15.55;;;-4.20;99.90;;;;;;5019930;28;20029;-62
2022/12/18 07:21:40;;;;;;;28.75;15.40;;;-4.10;99.90;;;;;;5024240;28;20354;-63
2022/12/18 07:24:06;;;;;;;29.17;14.45;;;-4.10;99.90;;;;;;5028565;28;20022;-62
2022/12/18 07:26:32;;;;;;;26.08;13.27;;;-4.10;99.90;;;;;;5024850;28;20449;-63
2022/12/18 07:28:57;;;;;;;27.90;15.07;;;-4.10;99.90;;;;;;5026679;28;20108;-62
2022/12/18 07:31:24;;;;;;;26.15;14.85;;;-4.10;99.90;;;;;;5025672;28;20079;-63
2022/12/18 07:33:50;;;;;;;27.33;15.07;;;-4.10;99.90;;;;;;5032700;28;20387;-62
2022/12/18 07:36:17;;;;;;;28.65;15.02;;;-4.10;99.90;;;;;;5030031;28;20036;-62
2022/12/18 07:38:43;;;;;;;26.25;14.05;;;-4.10;99.90;;;;;;5037951;28;20076;-64
2022/12/18 07:41:11;;;;;;;25.20;14.63;;;-4.00;99.90;;;;;;5016404;28;20025;-63
2022/12/18 07:43:37;;;;;;;23.10;13.95;;;-4.00;99.90;;;;;;5023372;28;20488;-63
2022/12/18 07:46:04;;;;;;;27.20;15.35;;;-4.00;99.90;;;;;;5028464;28;20069;-64
2022/12/18 07:48:30;;;;;;;29.35;15.60;;;-4.00;99.90;;;;;;5012853;28;20041;-64
2022/12/18 07:51:04;;;;;;;23.58;13.32;;;-4.00;99.90;;;;;;5025874;28;20026;-63
2022/12/18 07:53:30;;;;;;;24.33;13.63;;;-3.90;99.90;;;;;;5013475;28;20029;-63
2022/12/18 07:56:02;;;;;;;24.02;14.35;;;-3.90;99.90;;;;;;5013621;28;20112;-64
2022/12/18 07:58:28;;;;;;;27.10;15.13;;;-3.90;99.90;;;;;;5025906;28;20544;-63
2022/12/18 08:00:54;;;;;;;27.95;15.00;;;-3.90;99.90;;;;;;5013371;28;20030;-63
2022/12/18 08:03:19;;;;;;;33.35;16.85;;;-3.90;99.90;;;;;;5026162;28;20067;-63
2022/12/18 08:05:45;;;;;;;26.58;14.65;;;-3.90;99.90;;;;;;5028758;28;20029;-64
2022/12/18 08:08:11;;;;;;;27.63;14.52;;;-3.80;99.90;;;;;;5029550;28;20037;-63
2022/12/18 08:10:38;;;;;;;25.70;14.27;;;-3.80;99.90;;;;;;5027032;28;20503;-63
2022/12/18 08:13:03;;;;;;;27.27;14.50;;;-3.70;99.90;;;;;;5028960;28;20120;-63
2022/12/18 08:15:29;;;;;;;29.05;15.45;;;-3.70;99.90;;;;;;5029737;28;20167;-63
2022/12/18 08:17:56;;;;;;;26.08;14.88;;;-3.60;99.90;;;;;;5028314;28;20135;-63
2022/12/18 08:20:22;;;;;;;28.27;14.60;;;-3.60;99.90;;;;;;5030124;28;20021;-64
2022/12/18 08:22:48;;;;;;;26.10;14.15;;;-3.50;99.90;;;;;;5028047;28;20018;-63
2022/12/18 08:25:13;;;;;;;22.88;12.98;;;-3.50;99.90;;;;;;5027835;28;20265;-64
2022/12/18 08:27:39;;;;;;;23.95;13.18;;;-3.40;99.90;;;;;;5026159;28;20040;-63
2022/12/18 08:30:05;;;;;;;26.38;14.85;;;-3.40;99.90;;;;;;5030420;28;20047;-63
2022/12/18 08:32:32;;;;;;;27.73;14.50;;;-3.40;99.90;;;;;;5029396;28;20022;-64
2022/12/18 08:34:58;;;;;;;24.33;13.35;;;-3.30;99.90;;;;;;5027479;28;20033;-63
2022/12/18 08:37:24;;;;;;;25.75;13.75;;;-3.20;99.90;;;;;;5027082;28;20029;-64
2022/12/18 08:39:49;;;;;;;29.50;15.20;;;-3.20;99.90;;;;;;5025769;28;20379;-63
2022/12/18 08:44:59;;;;;;;29.73;14.60;;;-3.20;99.90;;;;;;5028671;28;20040;-64
2022/12/18 08:47:25;;;;;;;24.55;14.73;;;-3.10;99.90;;;;;;5026853;28;20017;-64
2022/12/18 08:49:51;;;;;;;28.40;13.85;;;-3.10;99.90;;;;;;5028065;28;20029;-63
2022/12/18 08:52:17;;;;;;;25.05;13.90;;;-3.00;99.90;;;;;;5024143;28;20018;-64
2022/12/18 08:54:42;;;;;;;28.33;14.52;;;-2.90;99.90;;;;;;5029012;28;20026;-64
2022/12/18 08:57:08;;;;;;;28.25;13.88;;;-2.90;99.90;;;;;;5027975;28;20101;-64
2022/12/18 08:59:33;;;;;;;28.17;14.43;;;-2.90;99.90;;;;;;5028179;28;20178;-63
2022/12/18 09:01:59;;;;;;;24.92;13.07;;;-2.80;99.90;;;;;;5027270;28;20432;-64
2022/12/18 09:04:24;;;;;;;23.95;13.23;;;-2.80;99.90;;;;;;5029254;28;20480;-63
2022/12/18 09:06:50;;;;;;;26.10;13.70;;;-2.70;99.90;;;;;;5027351;28;20026;-64
2022/12/18 09:09:15;;;;;;;25.42;13.82;;;-2.60;99.90;;;;;;5028041;28;20048;-63
2022/12/18 09:11:41;;;;;;;26.42;13.88;;;-2.50;99.90;;;;;;5026927;28;20495;-64
2022/12/18 09:14:08;;;;;;;26.42;14.05;;;-2.50;99.90;;;;;;5026973;28;20108;-64
2022/12/18 09:16:34;;;;;;;24.83;13.43;;;-2.40;99.90;;;;;;5026714;28;20564;-64
2022/12/18 09:19:01;;;;;;;21.60;12.65;;;-2.40;99.90;;;;;;5027071;28;20034;-64
2022/12/18 09:21:29;;;;;;;23.85;13.02;;;-2.30;99.90;;;;;;5025748;28;20504;-64
2022/12/18 09:23:55;;;;;;;24.90;13.18;;;-2.20;99.90;;;;;;5026946;28;20072;-65
2022/12/18 09:26:22;;;;;;;23.08;12.35;;;-2.20;99.90;;;;;;5027032;28;20049;-64
2022/12/18 09:28:48;;;;;;;24.90;12.25;;;-2.10;99.90;;;;;;5043186;28;20025;-65
2022/12/18 09:31:14;;;;;;;24.65;13.85;;;-2.00;99.90;;;;;;5042232;28;20059;-64
2022/12/18 09:33:40;;;;;;;22.58;12.93;;;-2.00;99.90;;;;;;5031023;28;20048;-64
2022/12/18 09:36:11;;;;;;;21.23;12.02;;;-1.90;99.90;;;;;;5029710;28;20026;-64
2022/12/18 09:38:43;;;;;;;25.77;13.82;;;-1.90;99.90;;;;;;5031790;28;20029;-65
2022/12/18 09:41:27;;;;;;;25.75;13.38;;;-1.80;99.90;;;;;;5031684;28;20025;-64
2022/12/18 09:44:00;;;;;;;24.52;13.07;;;-1.70;99.90;;;;;;5031067;28;20028;-64
2022/12/18 09:46:35;;;;;;;21.90;12.63;;;-1.70;99.90;;;;;;5028516;28;20481;-64
2022/12/18 09:49:06;;;;;;;27.27;13.27;;;-1.70;99.90;;;;;;5031607;28;20040;-64
2022/12/18 09:51:44;;;;;;;22.77;13.20;;;-1.60;99.90;;;;;;5028676;28;20049;-64
2022/12/18 09:54:32;;;;;;;26.30;13.38;;;-1.60;99.90;;;;;;5032881;28;20026;-64
2022/12/18 09:56:58;;;;;;;24.02;12.57;;;-1.50;99.90;;;;;;5032371;28;20083;-64
2022/12/18 09:59:27;;;;;;;23.08;12.85;;;-1.50;99.90;;;;;;5029745;28;20025;-64
2022/12/18 10:01:53;;;;;;;22.25;12.73;;;-1.50;99.90;;;;;;5032884;28;20029;-64
2022/12/18 10:04:19;;;;;;;22.42;12.18;;;-1.50;99.90;;;;;;5031854;28;20022;-64
2022/12/18 10:07:09;;;;;;;21.50;11.73;;;-1.50;99.90;;;;;;5028754;28;20049;-64
2022/12/18 10:09:47;;;;;;;23.92;12.95;;;-1.40;99.90;;;;;;5031422;28;20117;-64
2022/12/18 10:12:27;;;;;;;21.48;11.00;;;-1.30;99.90;;;;;;5028663;28;20064;-64
2022/12/18 10:15:06;;;;;;;23.17;12.18;;;-1.20;99.90;;;;;;5029021;28;20493;-64
2022/12/18 10:17:37;;;;;;;25.33;14.10;;;-1.10;99.90;;;;;;5032857;28;20038;-64
2022/12/18 10:20:20;;;;;;;22.90;11.95;;;-1.10;99.90;;;;;;5031953;28;20425;-64
2022/12/18 10:22:57;;;;;;;21.13;11.95;;;-1.00;99.90;;;;;;5029447;28;20587;-62
2022/12/18 10:25:25;;;;;;;20.63;11.88;;;-0.90;99.90;;;;;;5031479;28;20049;-62
2022/12/18 10:27:58;;;;;;;20.77;11.57;;;-0.90;99.90;;;;;;5032142;28;20024;-63
2022/12/18 10:30:25;;;;;;;21.25;12.02;;;-0.90;99.90;;;;;;5029989;28;20017;-63
2022/12/18 10:32:51;;;;;;;21.13;11.77;;;-0.90;99.90;;;;;;5029491;28;20018;-62
2022/12/18 10:35:24;;;;;;;22.60;12.88;;;-0.90;99.90;;;;;;5031063;28;20025;-62
2022/12/18 10:38:06;;;;;;;24.40;12.35;;;-0.90;99.90;;;;;;5030431;28;20474;-63
2022/12/18 10:40:32;;;;;;;23.42;12.45;;;-0.90;99.90;;;;;;5029540;28;20020;-63
2022/12/18 10:43:28;;;;;;;21.63;11.73;;;-0.90;99.90;;;;;;5030646;28;20108;-63
2022/12/18 10:46:08;;;;;;;21.58;11.63;;;-0.90;99.90;;;;;;5033351;28;20029;-64
2022/12/18 10:48:56;;;;;;;20.67;12.00;;;-0.90;99.90;;;;;;5039367;28;20109;-63
2022/12/18 10:51:27;;;;;;;21.58;12.10;;;-0.90;99.90;;;;;;5027279;28;20034;-63
2022/12/18 10:54:17;;;;;;;23.02;13.70;;;-0.90;99.90;;;;;;5043206;28;20022;-63
2022/12/18 10:56:43;;;;;;;;;;;-0.90;99.90;;;;;;5031459;28;20400;-63
2022/12/18 10:59:17;;;;;;;19.23;11.13;;;-0.90;99.90;;;;;;5031889;28;19988;-63
2022/12/18 11:01:58;;;;;;;21.00;11.85;;;-0.80;99.90;;;;;;5030118;28;20025;-64
2022/12/18 11:04:30;;;;;;;22.20;11.48;;;-0.80;99.90;;;;;;5026523;28;20485;-63
2022/12/18 11:07:07;;;;;;;21.80;12.60;;;-0.80;99.90;;;;;;5031462;28;20366;-63
2022/12/18 11:09:36;;;;;;;26.10;13.30;;;-0.70;99.90;;;;;;5031392;28;20385;-63
2022/12/18 11:12:23;;;;;;;22.55;11.85;;;-0.70;99.90;;;;;;5029199;28;20022;-64
2022/12/18 11:14:55;;;;;;;18.27;10.50;;;-0.70;99.90;;;;;;5028806;28;20029;-63
2022/12/18 11:17:37;;;;;;;21.90;11.90;;;-0.60;99.90;;;;;;5030477;28;20017;-63
2022/12/18 11:20:19;;;;;;;20.52;12.40;;;-0.60;99.90;;;;;;5026345;28;20026;-63
2022/12/18 11:22:58;;;;;;;22.05;11.75;;;-0.60;99.90;;;;;;5016708;28;20025;-63
2022/12/18 11:25:29;;;;;;;19.55;11.57;;;-0.50;99.90;;;;;;5015443;28;20029;-62
2022/12/18 11:27:56;;;;;;;20.92;12.55;;;-0.50;99.90;;;;;;5021632;28;20021;-62
2022/12/18 11:30:32;;;;;;;23.27;11.95;;;-0.40;99.90;;;;;;5022691;28;20440;-63
2022/12/18 11:33:21;;;;;;;20.90;11.55;;;-0.40;99.90;;;;;;5028900;28;20033;-62
2022/12/18 11:36:02;;;;;;;22.27;12.60;;;-0.30;99.90;;;;;;5032991;28;20060;-63
2022/12/18 11:38:34;;;;;;;23.27;12.90;;;-0.30;99.90;;;;;;5032750;28;20018;-63
2022/12/18 11:44:26;;;;;;;20.98;11.32;;;-0.20;99.60;;;;;;5028205;28;20032;-63
2022/12/18 11:47:30;;;;;;;24.08;13.75;;;-0.20;99.40;;;;;;5029669;28;20025;-63
2022/12/18 11:49:59;;;;;;;25.05;14.02;;;-0.10;99.30;;;;;;5026955;28;20049;-63
2022/12/18 11:52:33;;;;;;;20.70;12.18;;;-0.20;99.10;;;;;;5026578;28;20033;-64
2022/12/18 11:55:07;;;;;;;20.83;12.63;;;-0.10;99.40;;;;;;5030633;28;20033;-63
2022/12/18 11:58:00;;;;;;;26.40;13.68;;;-0.10;99.30;;;;;;5027991;28;20021;-63
2022/12/18 12:00:26;;;;;;;22.45;12.75;;;-0.10;99.20;;;;;;5029131;28;20018;-63
2022/12/18 12:03:03;;;;;;;23.02;12.57;;;-0.10;99.10;;;;;;5045832;28;20539;-62
2022/12/18 12:05:56;;;;;;;21.60;12.10;;;-0.10;99.00;;;;;;5026106;28;20021;-63
2022/12/18 12:08:40;;;;;;;25.17;13.10;;;0.00;99.00;;;;;;5025949;28;20021;-63
2022/12/18 12:11:17;;;;;;;21.85;13.25;;;0.00;98.60;;;;;;5019431;28;20393;-63
2022/12/18 12:13:55;;;;;;;22.10;12.85;;;0.00;98.60;;;;;;5023756;28;20022;-63
2022/12/18 12:16:27;;;;;;;24.42;13.07;;;0.00;98.60;;;;;;5028229;28;20120;-63
2022/12/18 12:19:10;;;;;;;21.45;12.77;;;0.00;98.50;;;;;;5028954;28;20025;-63
2022/12/18 12:21:53;;;;;;;23.70;13.35;;;0.10;98.30;;;;;;5024920;28;20113;-63
2022/12/18 12:24:37;;;;;;;22.88;12.25;;;0.10;98.20;;;;;;5013487;28;20026;-62
2022/12/18 12:27:26;;;;;;;22.63;12.43;;;0.10;98.30;;;;;;5012626;28;20052;-62
2022/12/18 12:30:08;;;;;;;24.10;13.70;;;0.20;98.10;;;;;;5013321;28;20026;-62
2022/12/18 12:33:01;;;;;;;21.48;12.73;;;0.20;98.10;;;;;;5026203;28;20033;-63
2022/12/18 12:35:51;;;;;;;20.60;12.95;;;0.20;98.20;;;;;;5021199;28;20047;-62
2022/12/18 12:38:36;;;;;;;23.35;12.20;;;0.20;98.30;;;;;;5012725;28;20022;-63
2022/12/18 12:43:59;;;;;;;25.20;14.40;;;0.20;98.00;;;;;;5024505;28;20028;-63
2022/12/18 12:46:30;;;;;;;23.88;13.70;;;0.20;98.00;;;;;;5012511;28;20397;-62
2022/12/18 12:49:01;;;;;;;19.98;12.88;;;0.20;98.10;;;;;;5017367;28;20034;-63
2022/12/18 12:51:34;;;;;;;24.00;13.52;;;0.30;98.10;;;;;;5012518;28;20034;-63
2022/12/18 12:54:06;;;;;;;24.40;13.10;;;0.30;97.90;;;;;;5013615;28;20037;-62
2022/12/18 12:56:52;;;;;;;21.58;12.48;;;0.30;97.90;;;;;;5011904;28;20034;-63